createdAt,value
2022-12-14T00:01:49.224Z,99157.73
2022-12-14T00:04:51.347Z,99158.42
2022-12-14T00:07:52.999Z,99154.42
2022-12-14T00:10:54.612Z,99151.96
2022-12-14T00:13:58.744Z,99153.07
2022-12-14T00:17:00.510Z,99152.42
2022-12-14T00:20:02.279Z,99155.27
2022-12-14T00:23:04.597Z,99159.69
2022-12-14T00:26:17.723Z,99160.27
2022-12-14T00:29:19.762Z,99159.23
2022-12-14T00:32:21.491Z,99157.22
2022-12-14T00:35:23.886Z,99153.33
2022-12-14T00:38:26.278Z,99146.42
2022-12-14T00:41:28.243Z,99147.86
2022-12-14T00:44:29.998Z,99143.57
2022-12-14T00:47:36.162Z,99147.63
2022-12-14T00:50:41.142Z,99144.33
2022-12-14T00:53:45.046Z,99140.77
2022-12-14T00:56:46.772Z,99144.27
2022-12-14T00:59:48.895Z,99148.77
2022-12-14T01:02:50.625Z,99148.53
2022-12-14T01:05:52.241Z,99145.45
2022-12-14T01:08:55.307Z,99146.25
2022-12-14T01:11:57.230Z,99138.14
2022-12-14T01:14:58.954Z,99139.57
2022-12-14T01:18:00.687Z,99139.75
2022-12-14T01:21:09.898Z,99136.55
2022-12-14T01:24:11.724Z,99141.38
2022-12-14T01:27:13.556Z,99145.63
2022-12-14T01:30:16.874Z,99145.65
2022-12-14T01:33:18.758Z,99143.64
2022-12-14T01:36:22.827Z,99135.24
2022-12-14T01:39:24.475Z,99128.30
2022-12-14T01:42:26.090Z,99125.31
2022-12-14T01:45:28.185Z,99125.25
2022-12-14T01:48:29.871Z,99125.98
2022-12-14T01:51:32.973Z,99125.81
2022-12-14T01:54:38.427Z,99117.31
2022-12-14T01:57:50.291Z,99116.84
2022-12-14T02:00:57.466Z,99116.25
2022-12-14T02:03:59.951Z,99112.52
2022-12-14T02:07:03.192Z,99109.77
2022-12-14T02:10:06.775Z,99113.76
2022-12-14T02:13:28.040Z,99112.58
2022-12-14T02:16:31.000Z,99108.60
2022-12-14T02:19:33.149Z,99106.73
2022-12-14T02:22:40.734Z,99104.22
2022-12-14T02:26:20.952Z,99110.09
2022-12-14T02:29:44.604Z,99119.54
2022-12-14T02:32:52.244Z,99120.52
2022-12-14T02:36:01.756Z,99116.98
2022-12-14T02:39:12.023Z,99111.26
2022-12-14T02:42:15.306Z,99109.92
2022-12-14T02:45:31.250Z,99103.02
2022-12-14T02:48:41.051Z,99106.33
2022-12-14T02:51:57.373Z,99111.07
2022-12-14T02:55:05.939Z,99107.98
2022-12-14T02:58:14.517Z,99103.79
2022-12-14T03:01:20.820Z,99094.75
2022-12-14T03:04:24.053Z,99090.91
2022-12-14T03:07:32.688Z,99089.17
2022-12-14T03:11:04.361Z,99084.99
2022-12-14T03:14:10.827Z,99080.94
2022-12-14T03:17:19.787Z,99072.63
2022-12-14T03:20:25.827Z,99080.51
2022-12-14T03:23:33.190Z,99084.51
2022-12-14T03:26:41.687Z,99085.57
2022-12-14T03:29:50.592Z,99087.02
2022-12-14T03:32:54.314Z,99082.08
2022-12-14T03:36:00.674Z,99080.42
2022-12-14T03:39:04.865Z,99086.04
2022-12-14T03:42:12.040Z,99091.75
2022-12-14T03:46:02.687Z,99092.89
2022-12-14T03:49:21.653Z,99091.59
2022-12-14T03:52:30.055Z,99089.55
2022-12-14T03:55:31.593Z,99091.65
2022-12-14T03:58:57.298Z,99090.44
2022-12-14T04:02:06.167Z,99095.02
2022-12-14T04:05:20.148Z,99089.01
2022-12-14T04:08:29.016Z,99081.30
2022-12-14T04:11:54.279Z,99074.55
2022-12-14T04:15:22.485Z,99067.95
2022-12-14T04:18:57.456Z,99062.80
2022-12-14T04:22:14.700Z,99063.30
2022-12-14T04:25:40.020Z,99063.19
2022-12-14T04:29:06.626Z,99062.08
2022-12-14T04:32:14.105Z,99062.37
2022-12-14T04:35:36.000Z,99062.61
2022-12-14T04:38:38.324Z,99061.83
2022-12-14T04:41:42.533Z,99053.73
2022-12-14T04:44:48.779Z,99055.89
2022-12-14T04:48:01.987Z,99052.95
2022-12-14T04:51:18.427Z,99051.62
2022-12-14T04:54:49.011Z,99058.70
2022-12-14T04:57:58.457Z,99049.72
2022-12-14T05:01:13.652Z,99044.11
2022-12-14T05:04:28.903Z,99044.83
2022-12-14T05:07:40.176Z,99035.63
2022-12-14T05:11:23.188Z,99025.60
2022-12-14T05:14:36.991Z,99028.10
2022-12-14T05:17:40.231Z,99032.64
2022-12-14T05:20:41.962Z,99027.38
2022-12-14T05:23:43.646Z,99020.85
2022-12-14T05:26:45.298Z,99021.46
2022-12-14T05:29:47.018Z,99020.45
2022-12-14T05:32:48.642Z,99019.57
2022-12-14T05:35:50.255Z,99025.02
2022-12-14T05:38:52.013Z,99016.41
2022-12-14T05:41:53.628Z,99011.77
2022-12-14T05:44:55.473Z,99011.68
2022-12-14T05:47:57.112Z,99005.69
2022-12-14T05:51:08.821Z,99004.31
2022-12-14T05:54:10.596Z,99003.05
2022-12-14T05:57:13.115Z,99004.56
2022-12-14T06:00:15.591Z,99008.30
2022-12-14T06:03:17.533Z,99013.46
2022-12-14T06:06:19.752Z,99014.60
2022-12-14T06:09:21.588Z,99020.14
2022-12-14T06:12:23.212Z,99024.46
2022-12-14T06:15:27.229Z,99019.09
2022-12-14T06:18:32.413Z,99024.84
2022-12-14T06:21:36.443Z,99029.48
2022-12-14T06:24:38.308Z,99030.07
2022-12-14T06:27:39.844Z,99019.20
2022-12-14T06:30:41.598Z,99013.54
2022-12-14T06:33:44.014Z,99006.48
2022-12-14T06:36:46.999Z,98999.70
2022-12-14T06:39:54.140Z,99001.11
2022-12-14T06:42:56.348Z,98996.35
2022-12-14T06:45:58.083Z,98993.36
2022-12-14T06:48:59.913Z,98989.60
2022-12-14T06:52:01.579Z,98988.38
2022-12-14T06:55:04.145Z,98985.29
2022-12-14T06:58:05.824Z,98987.14
2022-12-14T07:01:09.628Z,98995.39
2022-12-14T07:04:11.758Z,98994.00
2022-12-14T07:07:13.502Z,98988.39
2022-12-14T07:10:15.471Z,98988.77
2022-12-14T07:13:17.223Z,98991.05
2022-12-14T07:16:20.297Z,98989.23
2022-12-14T07:19:22.037Z,98988.32
2022-12-14T07:22:23.721Z,98985.65
2022-12-14T07:25:25.460Z,98979.27
2022-12-14T07:28:28.094Z,98978.85
2022-12-14T07:31:30.194Z,98969.14
2022-12-14T07:34:32.035Z,98963.08
2022-12-14T07:37:33.827Z,98960.34
2022-12-14T07:40:35.755Z,98960.74
2022-12-14T07:43:39.238Z,98955.97
2022-12-14T07:46:41.379Z,98955.78
2022-12-14T07:49:43.184Z,98954.20
2022-12-14T07:52:45.285Z,98953.86
2022-12-14T07:55:46.974Z,98948.04
2022-12-14T07:58:49.438Z,98941.45
2022-12-14T08:01:52.561Z,98941.48
2022-12-14T08:04:54.777Z,98938.54
2022-12-14T08:07:56.503Z,98942.52
2022-12-14T08:10:58.288Z,98943.27
2022-12-14T08:14:01.075Z,98941.40
2022-12-14T08:17:02.851Z,98936.96
2022-12-14T08:20:04.855Z,98928.87
2022-12-14T08:23:06.545Z,98929.65
2022-12-14T08:26:08.533Z,98934.96
2022-12-14T08:29:12.789Z,98940.55
2022-12-14T08:32:14.718Z,98939.85
2022-12-14T08:35:16.964Z,98937.05
2022-12-14T08:38:18.845Z,98933.73
2022-12-14T08:41:21.006Z,98928.91
2022-12-14T08:44:22.845Z,98929.00
2022-12-14T08:47:24.559Z,98924.86
2022-12-14T08:50:26.629Z,98929.63
2022-12-14T08:53:28.874Z,98931.39
2022-12-14T08:56:31.303Z,98920.57
2022-12-14T09:00:00.153Z,98916.36
2022-12-14T09:02:54.896Z,98913.27
2022-12-14T09:05:56.973Z,98908.58
2022-12-14T09:08:58.613Z,98902.16
2022-12-14T09:12:03.478Z,98899.73
2022-12-14T09:15:06.818Z,98895.87
2022-12-14T09:18:08.880Z,98888.36
2022-12-14T09:21:11.077Z,98887.11
2022-12-14T09:24:12.915Z,98878.59
2022-12-14T09:27:14.646Z,98878.05
2022-12-14T09:30:19.332Z,98882.65
2022-12-14T09:33:26.517Z,98875.27
2022-12-14T09:36:29.187Z,98876.20
2022-12-14T09:39:36.283Z,98875.35
2022-12-14T09:42:54.170Z,98863.86
2022-12-14T09:46:00.250Z,98859.16
2022-12-14T09:49:02.762Z,98857.81
2022-12-14T09:52:06.699Z,98853.73
2022-12-14T09:55:17.174Z,98851.86
2022-12-14T09:58:32.803Z,98853.34
2022-12-14T10:05:25.351Z,98843.07
2022-12-14T10:08:40.691Z,98833.83
2022-12-14T10:12:12.648Z,98830.63
2022-12-14T10:15:14.647Z,98824.64
2022-12-14T10:18:57.725Z,98826.20
2022-12-14T10:21:55.454Z,98826.88
2022-12-14T10:25:23.700Z,98826.55
2022-12-14T10:28:45.943Z,98826.42
2022-12-14T10:32:04.584Z,98829.51
2022-12-14T10:35:20.401Z,98827.84
2022-12-14T10:38:28.304Z,98826.55
2022-12-14T10:41:36.201Z,98821.84
2022-12-14T10:45:38.960Z,98821.58
2022-12-14T10:48:48.228Z,98814.77
2022-12-14T10:52:01.277Z,98809.47
2022-12-14T10:55:09.373Z,98797.08
2022-12-14T10:58:11.615Z,98790.33
2022-12-14T11:01:15.834Z,98782.73
2022-12-14T11:04:33.375Z,98781.40
2022-12-14T11:07:35.174Z,98777.31
2022-12-14T11:10:39.565Z,98773.03
2022-12-14T11:13:48.755Z,98772.61
2022-12-14T11:16:50.594Z,98768.77
2022-12-14T11:20:09.917Z,98763.54
2022-12-14T11:23:20.982Z,98764.88
2022-12-14T11:26:29.030Z,98764.70
2022-12-14T11:29:34.284Z,98763.04
2022-12-14T11:32:36.078Z,98759.63
2022-12-14T11:35:37.692Z,98751.11
2022-12-14T11:38:39.488Z,98740.74
2022-12-14T11:41:47.533Z,98739.10
2022-12-14T11:44:50.615Z,98735.30
2022-12-14T11:48:21.261Z,98738.91
2022-12-14T11:51:23.123Z,98731.66
2022-12-14T11:54:24.946Z,98726.55
2022-12-14T11:57:46.830Z,98721.58
2022-12-14T12:00:52.826Z,98718.91
2022-12-14T12:03:58.867Z,98722.86
2022-12-14T12:07:15.054Z,98718.48
2022-12-14T12:10:34.170Z,98718.15
2022-12-14T12:13:38.630Z,98717.69
2022-12-14T12:16:42.370Z,98706.13
2022-12-14T12:19:44.120Z,98695.93
2022-12-14T12:22:48.323Z,98688.98
2022-12-14T12:25:51.589Z,98685.02
2022-12-14T12:28:57.431Z,98679.84
2022-12-14T12:32:21.234Z,98675.80
2022-12-14T12:35:41.800Z,98679.20
2022-12-14T12:38:49.784Z,98670.09
2022-12-14T12:42:05.698Z,98665.53
2022-12-14T12:45:19.353Z,98666.73
2022-12-14T12:48:38.899Z,98655.55
2022-12-14T12:51:54.394Z,98646.20
2022-12-14T12:55:10.380Z,98637.55
2022-12-14T12:58:24.969Z,98633.33
2022-12-14T13:01:34.723Z,98631.39
2022-12-14T13:04:40.500Z,98621.89
2022-12-14T13:07:49.243Z,98621.53
2022-12-14T13:14:29.303Z,98618.66
2022-12-14T13:17:41.977Z,98616.46
2022-12-14T13:20:44.235Z,98616.78
2022-12-14T13:23:51.597Z,98611.06
2022-12-14T13:26:58.299Z,98603.48
2022-12-14T13:30:10.087Z,98595.23
2022-12-14T13:34:09.886Z,98590.34
2022-12-14T13:37:37.150Z,98578.73
2022-12-14T13:40:40.430Z,98570.15
2022-12-14T13:44:04.434Z,98556.87
2022-12-14T13:47:14.001Z,98547.28
2022-12-14T13:50:44.506Z,98534.98
2022-12-14T13:53:59.327Z,98525.08
2022-12-14T13:57:06.822Z,98527.59
2022-12-14T14:00:47.540Z,98524.22
2022-12-14T14:03:54.283Z,98508.88
2022-12-14T14:07:22.394Z,98503.65
2022-12-14T14:10:42.322Z,98491.50
2022-12-14T14:13:44.120Z,98491.33
2022-12-14T14:16:56.501Z,98476.69
2022-12-14T14:19:58.483Z,98459.67
2022-12-14T14:23:16.068Z,98454.95
2022-12-14T14:26:26.244Z,98457.65
2022-12-14T14:29:29.437Z,98441.65
2022-12-14T14:32:38.513Z,98435.58
2022-12-14T14:35:40.268Z,98442.98
2022-12-14T14:38:42.690Z,98431.36
2022-12-14T14:41:45.062Z,98423.78
2022-12-14T14:44:52.865Z,98423.10
2022-12-14T14:47:56.206Z,98416.87
2022-12-14T14:51:20.477Z,98409.12
2022-12-14T14:55:15.929Z,98407.79
2022-12-14T14:57:59.620Z,98397.52
2022-12-14T15:01:10.998Z,98396.52
2022-12-14T15:04:23.405Z,98380.19
2022-12-14T15:07:29.877Z,98373.64
2022-12-14T15:10:37.614Z,98371.95
2022-12-14T15:13:46.304Z,98347.86
2022-12-14T15:16:51.216Z,98339.27
2022-12-14T15:19:55.040Z,98340.61
2022-12-14T15:22:57.246Z,98328.48
2022-12-14T15:26:01.107Z,98329.34
2022-12-14T15:29:04.782Z,98332.54
2022-12-14T15:32:06.569Z,98320.42
2022-12-14T15:35:15.184Z,98315.89
2022-12-14T15:38:20.479Z,98314.20
2022-12-14T15:41:24.062Z,98303.25
2022-12-14T15:44:25.900Z,98301.40
2022-12-14T15:47:29.853Z,98285.70
2022-12-14T15:50:32.801Z,98281.16
2022-12-14T15:53:43.426Z,98281.98
2022-12-14T15:56:55.638Z,98276.05
2022-12-14T15:59:58.200Z,98271.11
2022-12-14T16:03:00.468Z,98262.63
2022-12-14T16:06:03.412Z,98272.18
2022-12-14T16:09:24.034Z,98268.88
2022-12-14T16:12:45.139Z,98260.69
2022-12-14T16:15:49.493Z,98256.55
2022-12-14T16:18:51.839Z,98243.48
2022-12-14T16:22:24.602Z,98229.70
2022-12-14T16:25:26.516Z,98212.89
2022-12-14T16:28:31.323Z,98221.22
2022-12-14T16:31:34.090Z,98225.35
2022-12-14T16:34:35.781Z,98221.23
2022-12-14T16:37:37.606Z,98218.27
2022-12-14T16:40:40.375Z,98209.05
2022-12-14T16:43:42.031Z,98203.40
2022-12-14T16:47:03.561Z,98198.42
2022-12-14T16:50:47.606Z,98194.98
2022-12-14T16:53:50.049Z,98194.41
2022-12-14T16:56:57.114Z,98191.80
2022-12-14T17:00:04.206Z,98194.77
2022-12-14T17:03:09.018Z,98196.72
2022-12-14T17:06:25.221Z,98197.46
2022-12-14T17:09:29.854Z,98202.78
2022-12-14T17:12:31.631Z,98200.34
2022-12-14T17:15:33.844Z,98204.50
2022-12-14T17:18:38.069Z,98198.22
2022-12-14T17:21:39.910Z,98197.52
2022-12-14T17:24:41.861Z,98198.02
2022-12-14T17:27:43.627Z,98191.21
2022-12-14T17:30:46.539Z,98194.77
2022-12-14T17:33:49.436Z,98203.77
2022-12-14T17:36:51.153Z,98203.77
2022-12-14T17:39:52.809Z,98197.75
2022-12-14T17:42:57.075Z,98193.48
2022-12-14T17:46:01.210Z,98194.96
2022-12-14T17:49:06.777Z,98197.42
2022-12-14T17:52:18.853Z,98199.56
2022-12-14T17:55:28.972Z,98190.88
2022-12-14T17:58:30.802Z,98194.48
2022-12-14T18:01:32.687Z,98195.19
2022-12-14T18:04:34.305Z,98185.92
2022-12-14T18:07:35.996Z,98180.66
2022-12-14T18:10:38.562Z,98175.90
2022-12-14T18:13:40.582Z,98170.92
2022-12-14T18:16:42.419Z,98174.23
2022-12-14T18:19:45.054Z,98179.40
2022-12-14T18:22:50.469Z,98168.98
2022-12-14T18:25:54.815Z,98162.09
2022-12-14T18:28:57.901Z,98165.34
2022-12-14T18:32:00.070Z,98161.44
2022-12-14T18:35:01.740Z,98155.86
2022-12-14T18:38:03.619Z,98156.18
2022-12-14T18:41:05.334Z,98150.51
2022-12-14T18:44:07.051Z,98149.81
2022-12-14T18:47:33.510Z,98140.20
2022-12-14T18:50:30.870Z,98132.29
2022-12-14T18:53:33.009Z,98120.45
2022-12-14T18:56:35.031Z,98111.90
2022-12-14T18:59:42.250Z,98104.44
2022-12-14T19:02:46.883Z,98104.94
2022-12-14T19:05:51.979Z,98104.25
2022-12-14T19:08:53.831Z,98105.75
2022-12-14T19:11:55.600Z,98101.69
2022-12-14T19:14:58.503Z,98101.34
2022-12-14T19:18:01.172Z,98096.43
2022-12-14T19:21:03.410Z,98088.67
2022-12-14T19:24:08.644Z,98088.55
2022-12-14T19:27:10.929Z,98083.86
2022-12-14T19:30:22.671Z,98079.58
2022-12-14T19:33:25.709Z,98068.67
2022-12-14T19:36:27.499Z,98058.70
2022-12-14T19:39:29.602Z,98047.08
2022-12-14T19:42:32.113Z,98049.84
2022-12-14T19:45:35.053Z,98046.71
2022-12-14T19:48:37.902Z,98052.35
2022-12-14T19:51:39.565Z,98053.72
2022-12-14T19:54:41.350Z,98047.18
2022-12-14T19:57:43.073Z,98039.30
2022-12-14T20:00:44.766Z,98028.45
2022-12-14T20:03:46.664Z,98028.01
2022-12-14T20:06:48.537Z,98031.41
2022-12-14T20:09:50.272Z,98036.20
2022-12-14T20:12:51.953Z,98028.71
2022-12-14T20:15:58.291Z,98028.44
2022-12-14T20:19:00.084Z,98017.38
2022-12-14T20:22:01.853Z,98010.53
2022-12-14T20:25:04.092Z,98006.38
2022-12-14T20:28:05.730Z,98009.41
2022-12-14T20:31:10.146Z,98018.48
2022-12-14T20:34:11.868Z,98028.36
2022-12-14T20:37:13.684Z,98030.38
2022-12-14T20:40:15.407Z,98036.46
2022-12-14T20:43:17.609Z,98034.88
2022-12-14T20:46:33.399Z,98031.58
2022-12-14T20:49:35.139Z,98040.88
2022-12-14T20:52:36.767Z,98033.27
2022-12-14T20:55:38.482Z,98026.86
2022-12-14T20:58:42.020Z,98024.41
2022-12-14T21:01:44.032Z,98024.78
2022-12-14T21:04:46.563Z,98019.96
2022-12-14T21:07:49.187Z,98027.95
2022-12-14T21:10:50.814Z,98039.62
2022-12-14T21:13:52.584Z,98045.91
2022-12-14T21:16:54.911Z,98036.77
2022-12-14T21:19:58.063Z,98021.05
2022-12-14T21:22:59.957Z,98015.71
2022-12-14T21:26:05.134Z,98023.85
2022-12-14T21:29:08.909Z,98018.45
2022-12-14T21:32:10.927Z,98018.24
2022-12-14T21:35:17.500Z,98023.69
2022-12-14T21:38:19.578Z,98019.02
2022-12-14T21:41:39.964Z,98020.63
2022-12-14T21:44:44.209Z,98025.30
2022-12-14T21:47:45.905Z,98023.56
2022-12-14T21:50:47.548Z,98026.05
2022-12-14T21:54:00.856Z,98031.60
2022-12-14T21:57:22.242Z,98033.45
2022-12-14T22:00:23.926Z,98042.35
2022-12-14T22:03:25.616Z,98038.94
2022-12-14T22:06:27.414Z,98040.77
2022-12-14T22:09:29.433Z,98041.60
2022-12-14T22:12:31.213Z,98034.46
2022-12-14T22:15:32.799Z,98034.75
2022-12-14T22:18:34.753Z,98038.13
2022-12-14T22:21:38.650Z,98036.41
2022-12-14T22:24:41.029Z,98033.86
2022-12-14T22:27:42.707Z,98033.86
2022-12-14T22:30:44.536Z,98031.47
2022-12-14T22:33:49.831Z,98031.64
2022-12-14T22:36:52.805Z,98030.02
2022-12-14T22:39:54.418Z,98031.23
2022-12-14T22:42:56.153Z,98027.86
2022-12-14T22:46:03.078Z,98024.49
2022-12-14T22:49:05.018Z,98027.20
2022-12-14T22:52:06.640Z,98026.55
2022-12-14T22:55:08.718Z,98020.82
2022-12-14T22:58:11.232Z,98025.90
2022-12-14T23:01:14.150Z,98026.06
2022-12-14T23:04:15.894Z,98012.89
2022-12-14T23:07:18.048Z,98013.27
2022-12-14T23:10:38.854Z,98016.14
2022-12-14T23:13:59.330Z,98018.55
2022-12-14T23:17:21.142Z,98024.48
2022-12-14T23:20:41.488Z,98022.96
2022-12-14T23:24:03.974Z,98025.86
2022-12-14T23:27:24.426Z,98026.38
2022-12-14T23:30:44.987Z,98028.36
2022-12-14T23:34:05.934Z,98033.73
2022-12-14T23:37:26.251Z,98030.67
2022-12-14T23:40:46.865Z,98033.35
2022-12-14T23:44:07.224Z,98033.34
2022-12-14T23:47:27.899Z,98040.77
2022-12-14T23:50:48.320Z,98043.46
2022-12-14T23:54:08.836Z,98038.06
2022-12-14T23:57:29.393Z,98040.73
